createdAt,value
2018-09-14T00:01:45.042Z,9.97
2018-09-14T00:04:14.500Z,26.27
2018-09-14T00:06:43.187Z,14.23
2018-09-14T00:09:13.114Z,10.20
2018-09-14T00:11:42.392Z,14.10
2018-09-14T00:14:10.994Z,23.20
2018-09-14T00:16:39.694Z,33.37
2018-09-14T00:19:08.357Z,18.27
2018-09-14T00:21:37.482Z,18.03
2018-09-14T00:24:06.650Z,12.77
2018-09-14T00:26:35.204Z,13.50
2018-09-14T00:29:03.993Z,14.43
2018-09-14T00:31:33.173Z,27.23
2018-09-14T00:34:02.296Z,27.63
2018-09-14T00:36:31.780Z,59.17
2018-09-14T00:39:00.296Z,33.70
2018-09-14T00:41:29.339Z,52.80
2018-09-14T00:43:58.081Z,23.70
2018-09-14T00:46:26.871Z,36.33
2018-09-14T00:48:56.486Z,38.90
2018-09-14T00:51:25.351Z,43.23
2018-09-14T00:53:54.676Z,35.43
2018-09-14T00:56:24.128Z,28.57
2018-09-14T00:58:52.744Z,45.67
2018-09-14T01:01:22.090Z,36.43
2018-09-14T01:03:50.762Z,29.97
2018-09-14T01:06:19.545Z,40.43
2018-09-14T01:08:48.970Z,35.67
2018-09-14T01:11:17.654Z,37.43
2018-09-14T01:13:47.201Z,50.67
2018-09-14T01:16:15.882Z,32.30
2018-09-14T01:18:44.689Z,58.43
2018-09-14T01:21:13.714Z,33.87
2018-09-14T01:23:43.081Z,29.27
2018-09-14T01:26:11.691Z,51.30
2018-09-14T01:28:40.490Z,35.50
2018-09-14T01:31:09.815Z,36.83
2018-09-14T01:33:38.503Z,27.23
2018-09-14T01:36:11.877Z,30.03
2018-09-14T01:38:41.469Z,34.93
2018-09-14T01:41:10.588Z,29.63
2018-09-14T01:43:40.064Z,28.67
2018-09-14T01:46:09.167Z,34.07
2018-09-14T01:48:37.769Z,36.10
2018-09-14T01:51:06.519Z,28.23
2018-09-14T01:53:36.165Z,46.77
2018-09-14T01:56:05.188Z,33.57
2018-09-14T01:58:33.963Z,39.30
2018-09-14T02:01:02.661Z,36.53
2018-09-14T02:03:31.250Z,40.47
2018-09-14T02:06:00.582Z,48.40
2018-09-14T02:08:29.265Z,39.00
2018-09-14T02:10:58.014Z,55.67
2018-09-14T02:13:26.701Z,41.63
2018-09-14T02:15:55.401Z,52.37
2018-09-14T02:18:24.309Z,39.83
2018-09-14T02:20:53.075Z,53.63
2018-09-14T02:23:21.773Z,35.23
2018-09-14T02:25:51.294Z,34.93
2018-09-14T02:28:20.744Z,32.80
2018-09-14T02:30:49.499Z,42.67
2018-09-14T02:33:18.337Z,62.17
2018-09-14T02:35:46.906Z,43.57
2018-09-14T02:38:15.570Z,50.20
2018-09-14T02:40:44.286Z,50.43
2018-09-14T02:43:13.087Z,25.63
2018-09-14T02:45:42.339Z,36.30
2018-09-14T02:48:11.682Z,31.90
2018-09-14T02:50:40.198Z,26.10
2018-09-14T02:53:08.903Z,28.13
2018-09-14T02:55:37.639Z,33.27
2018-09-14T02:58:06.634Z,63.60
2018-09-14T03:00:36.083Z,52.60
2018-09-14T03:03:04.699Z,49.67
2018-09-14T03:05:33.573Z,39.60
2018-09-14T03:08:02.569Z,29.07
2018-09-14T03:10:31.664Z,52.47
2018-09-14T03:13:00.357Z,56.47
2018-09-14T03:15:29.847Z,39.90
2018-09-14T03:17:58.408Z,35.67
2018-09-14T03:20:27.756Z,35.77
2018-09-14T03:22:56.985Z,29.23
2018-09-14T03:25:26.101Z,51.50
2018-09-14T03:27:56.392Z,47.87
2018-09-14T03:30:25.063Z,33.50
2018-09-14T03:32:53.697Z,46.17
2018-09-14T03:35:22.350Z,31.73
2018-09-14T03:37:50.918Z,48.90
2018-09-14T03:40:19.718Z,48.30
2018-09-14T03:42:48.254Z,61.70
2018-09-14T03:45:17.100Z,39.30
2018-09-14T03:47:45.703Z,49.50
2018-09-14T03:50:14.632Z,31.97
2018-09-14T03:52:43.216Z,30.33
2018-09-14T03:55:12.686Z,27.70
2018-09-14T03:57:42.578Z,25.47
2018-09-14T04:00:11.914Z,62.87
2018-09-14T04:02:40.463Z,45.97
2018-09-14T04:05:08.988Z,41.50
2018-09-14T04:07:37.650Z,27.93
2018-09-14T04:10:06.155Z,44.50
2018-09-14T04:12:34.736Z,38.27
2018-09-14T04:15:03.293Z,38.37
2018-09-14T04:17:32.829Z,30.67
2018-09-14T04:20:04.210Z,47.47
2018-09-14T04:22:32.813Z,34.60
2018-09-14T04:25:01.706Z,28.77
2018-09-14T04:27:31.003Z,33.73
2018-09-14T04:29:59.578Z,38.47
2018-09-14T04:32:28.485Z,29.10
2018-09-14T04:34:57.197Z,26.67
2018-09-14T04:37:26.279Z,29.50
2018-09-14T04:39:55.870Z,30.53
2018-09-14T04:42:25.375Z,24.10
2018-09-14T04:44:54.335Z,35.27
2018-09-14T04:47:23.711Z,28.40
2018-09-14T04:49:52.643Z,56.73
2018-09-14T04:52:22.776Z,42.50
2018-09-14T04:54:51.369Z,33.97
2018-09-14T04:57:20.815Z,27.37
2018-09-14T04:59:50.783Z,26.27
2018-09-14T05:02:19.269Z,28.73
2018-09-14T05:04:47.930Z,37.87
2018-09-14T05:07:16.423Z,51.13
2018-09-14T05:09:44.989Z,45.13
2018-09-14T05:12:13.695Z,44.10
2018-09-14T05:14:42.468Z,32.83
2018-09-14T05:17:10.939Z,32.07
2018-09-14T05:19:40.239Z,60.00
2018-09-14T05:22:09.623Z,33.30
2018-09-14T05:24:38.235Z,38.37
2018-09-14T05:27:06.737Z,43.80
2018-09-14T05:29:35.287Z,46.13
2018-09-14T05:32:03.848Z,61.60
2018-09-14T05:34:32.550Z,65.67
2018-09-14T05:37:01.187Z,60.90
2018-09-14T05:39:29.706Z,59.87
2018-09-14T05:41:58.187Z,43.53
2018-09-14T05:44:26.750Z,29.37
2018-09-14T05:46:55.268Z,43.23
2018-09-14T05:49:23.971Z,50.27
2018-09-14T05:51:52.555Z,42.17
2018-09-14T05:54:21.620Z,31.33
2018-09-14T05:56:50.115Z,30.80
2018-09-14T05:59:18.633Z,40.00
2018-09-14T06:01:47.815Z,61.00
2018-09-14T06:04:16.449Z,55.57
2018-09-14T06:06:45.062Z,47.00
2018-09-14T06:09:14.058Z,55.90
2018-09-14T06:11:43.277Z,39.93
2018-09-14T06:14:11.960Z,41.70
2018-09-14T06:16:40.822Z,61.40
2018-09-14T06:19:09.466Z,66.40
2018-09-14T06:21:37.965Z,38.27
2018-09-14T06:24:07.292Z,79.90
2018-09-14T06:26:36.180Z,56.33
2018-09-14T06:29:05.166Z,75.10
2018-09-14T06:31:33.900Z,88.63
2018-09-14T06:34:02.521Z,85.37
2018-09-14T06:36:31.054Z,79.27
2018-09-14T06:39:00.226Z,60.23
2018-09-14T06:41:29.179Z,70.73
2018-09-14T06:43:57.754Z,45.80
2018-09-14T06:46:26.261Z,75.33
2018-09-14T06:48:54.826Z,63.73
2018-09-14T06:51:23.455Z,46.90
2018-09-14T06:53:52.076Z,40.87
2018-09-14T06:56:20.617Z,35.87
2018-09-14T06:58:49.437Z,31.43
2018-09-14T07:01:18.594Z,37.70
2018-09-14T07:03:47.295Z,36.90
2018-09-14T07:06:15.913Z,52.50
2018-09-14T07:08:44.478Z,39.50
2018-09-14T07:11:13.327Z,67.30
2018-09-14T07:13:41.829Z,50.57
2018-09-14T07:16:10.403Z,66.90
2018-09-14T07:18:39.912Z,64.73
2018-09-14T07:21:09.246Z,45.53
2018-09-14T07:23:37.929Z,68.13
2018-09-14T07:26:06.491Z,60.33
2018-09-14T07:28:36.112Z,50.13
2018-09-14T07:31:04.776Z,63.87
2018-09-14T07:33:34.108Z,62.63
2018-09-14T07:36:02.670Z,70.00
2018-09-14T07:38:31.302Z,80.17
2018-09-14T07:40:59.872Z,78.80
2018-09-14T07:43:28.372Z,71.43
2018-09-14T07:45:57.019Z,55.77
2018-09-14T07:48:26.269Z,64.90
2018-09-14T07:50:54.737Z,47.20
2018-09-14T07:53:23.365Z,57.83
2018-09-14T07:55:52.080Z,45.63
2018-09-14T07:58:20.758Z,37.60
2018-09-14T08:00:49.357Z,65.93
2018-09-14T08:03:17.986Z,51.50
2018-09-14T08:05:46.850Z,63.80
2018-09-14T08:08:15.386Z,54.03
2018-09-14T08:10:43.985Z,44.53
2018-09-14T08:13:12.531Z,49.07
2018-09-14T08:15:41.103Z,48.23
2018-09-14T08:18:10.364Z,57.17
2018-09-14T08:20:38.961Z,42.77
2018-09-14T08:23:07.604Z,54.30
2018-09-14T08:25:36.207Z,51.97
2018-09-14T08:28:05.363Z,51.53
2018-09-14T08:30:34.180Z,31.17
2018-09-14T08:33:02.907Z,59.23
2018-09-14T08:35:38.637Z,53.33
2018-09-14T08:38:07.392Z,36.83
2018-09-14T08:40:42.486Z,43.77
2018-09-14T08:43:11.778Z,37.33
2018-09-14T08:45:40.791Z,49.07
2018-09-14T08:48:09.458Z,34.67
2018-09-14T08:50:37.922Z,46.20
2018-09-14T08:53:07.067Z,37.73
2018-09-14T08:55:36.246Z,37.00
2018-09-14T08:58:05.247Z,43.03
2018-09-14T09:00:34.071Z,41.10
2018-09-14T09:03:02.568Z,44.80
2018-09-14T09:05:31.880Z,28.07
2018-09-14T09:08:00.430Z,30.17
2018-09-14T09:10:29.121Z,53.50
2018-09-14T09:12:58.289Z,41.27
2018-09-14T09:15:27.012Z,31.80
2018-09-14T09:17:55.872Z,46.67
2018-09-14T09:20:25.246Z,37.73
2018-09-14T09:22:53.814Z,27.23
2018-09-14T09:25:22.309Z,24.63
2018-09-14T09:27:50.852Z,40.47
2018-09-14T09:30:19.509Z,34.00
2018-09-14T09:32:48.902Z,46.70
2018-09-14T09:35:17.454Z,28.77
2018-09-14T09:37:46.108Z,31.80
2018-09-14T09:40:14.713Z,27.13
2018-09-14T09:42:43.296Z,41.57
2018-09-14T09:45:11.886Z,29.90
2018-09-14T09:47:40.456Z,30.87
2018-09-14T09:50:09.098Z,43.60
2018-09-14T09:52:37.571Z,33.63
2018-09-14T09:55:06.267Z,51.63
2018-09-14T09:57:34.891Z,37.60
2018-09-14T10:00:03.429Z,44.17
2018-09-14T10:02:37.445Z,50.43
2018-09-14T10:06:13.130Z,47.20
2018-09-14T10:08:42.047Z,38.90
2018-09-14T10:11:11.187Z,42.83
2018-09-14T10:13:40.257Z,36.60
2018-09-14T10:16:08.767Z,28.47
2018-09-14T10:18:37.294Z,45.93
2018-09-14T10:21:06.336Z,40.17
2018-09-14T10:23:35.960Z,32.60
2018-09-14T10:26:04.594Z,40.20
2018-09-14T10:28:33.300Z,50.57
2018-09-14T10:31:02.464Z,48.70
2018-09-14T10:33:31.092Z,50.83
2018-09-14T10:35:59.639Z,33.30
2018-09-14T10:38:28.252Z,43.57
2018-09-14T10:40:56.846Z,46.90
2018-09-14T10:43:25.425Z,45.43
2018-09-14T10:45:54.013Z,26.90
2018-09-14T10:48:22.518Z,41.37
2018-09-14T10:50:51.077Z,50.63
2018-09-14T10:53:19.720Z,49.67
2018-09-14T10:55:48.236Z,36.07
2018-09-14T10:58:16.843Z,45.50
2018-09-14T11:00:45.362Z,35.47
2018-09-14T11:03:14.514Z,45.63
2018-09-14T11:05:43.958Z,32.83
2018-09-14T11:08:12.534Z,36.97
2018-09-14T11:10:41.234Z,49.13
2018-09-14T11:13:10.503Z,34.47
2018-09-14T11:15:39.026Z,43.53
2018-09-14T11:18:07.687Z,40.90
2018-09-14T11:20:36.385Z,39.37
2018-09-14T11:23:04.861Z,32.53
2018-09-14T11:25:33.559Z,28.30
2018-09-14T11:28:02.248Z,26.90
2018-09-14T11:30:30.941Z,28.80
2018-09-14T11:33:00.015Z,28.70
2018-09-14T11:35:28.771Z,27.83
2018-09-14T11:37:57.526Z,19.87
2018-09-14T11:40:26.164Z,32.27
2018-09-14T11:42:54.857Z,25.43
2018-09-14T11:45:23.444Z,21.27
2018-09-14T11:47:51.918Z,27.03
2018-09-14T11:50:20.544Z,22.73
2018-09-14T11:52:49.790Z,21.70
2018-09-14T11:55:18.436Z,28.30
2018-09-14T11:57:48.277Z,22.00
2018-09-14T12:00:17.047Z,21.03
2018-09-14T12:02:45.598Z,17.03
2018-09-14T12:05:14.727Z,18.27
2018-09-14T12:07:43.274Z,23.07
2018-09-14T12:10:12.392Z,22.97
2018-09-14T12:12:41.105Z,26.30
2018-09-14T12:15:09.888Z,21.77
2018-09-14T12:17:39.147Z,25.30
2018-09-14T12:20:08.177Z,31.80
2018-09-14T12:22:36.788Z,24.37
2018-09-14T12:25:05.549Z,19.90
2018-09-14T12:27:34.227Z,16.10
2018-09-14T12:30:02.808Z,22.87
2018-09-14T12:32:31.458Z,16.53
2018-09-14T12:34:59.989Z,25.03
2018-09-14T12:37:28.722Z,18.03
2018-09-14T12:39:57.292Z,16.27
2018-09-14T12:42:31.991Z,12.53
2018-09-14T12:45:00.997Z,23.37
2018-09-14T12:47:30.523Z,22.47
2018-09-14T12:52:46.447Z,17.87
2018-09-14T12:55:16.531Z,17.65
2018-09-14T12:57:45.456Z,21.53
2018-09-14T13:00:16.295Z,18.40
2018-09-14T13:02:45.106Z,18.57
2018-09-14T13:05:15.582Z,21.30
2018-09-14T13:07:44.613Z,19.37
2018-09-14T13:10:13.119Z,24.72
2018-09-14T13:12:41.930Z,19.35
2018-09-14T13:15:11.295Z,23.10
2018-09-14T13:17:41.622Z,18.85
2018-09-14T13:20:10.917Z,14.93
2018-09-14T13:22:40.205Z,14.45
2018-09-14T13:25:10.231Z,12.30
2018-09-14T13:27:38.840Z,11.03
2018-09-14T13:30:07.809Z,20.25
2018-09-14T13:32:36.978Z,16.48
2018-09-14T13:35:06.666Z,13.40
2018-09-14T13:37:35.387Z,16.23
2018-09-14T13:40:03.999Z,15.15
2018-09-14T13:42:32.669Z,11.20
2018-09-14T13:45:01.799Z,12.25
2018-09-14T13:47:30.627Z,16.67
2018-09-14T13:50:00.182Z,10.28
2018-09-14T13:52:30.899Z,12.55
2018-09-14T13:54:59.453Z,17.52
2018-09-14T13:57:28.325Z,20.40
2018-09-14T13:59:57.939Z,18.17
2018-09-14T14:02:27.058Z,21.27
2018-09-14T14:04:55.595Z,20.55
2018-09-14T14:07:24.234Z,24.37
2018-09-14T14:09:53.242Z,20.35
2018-09-14T14:12:22.106Z,23.75
2018-09-14T14:14:50.707Z,31.02
2018-09-14T14:17:19.677Z,28.50
2018-09-14T14:19:49.064Z,33.60
2018-09-14T14:22:18.793Z,30.65
2018-09-14T14:24:48.152Z,33.10
2018-09-14T14:27:16.627Z,31.75
2018-09-14T14:29:45.516Z,35.45
2018-09-14T14:32:14.220Z,32.48
2018-09-14T14:34:42.779Z,39.78
2018-09-14T14:37:11.333Z,34.43
2018-09-14T14:39:40.082Z,35.33
2018-09-14T14:42:08.613Z,38.27
2018-09-14T14:44:37.990Z,29.23
2018-09-14T14:47:06.492Z,32.33
2018-09-14T14:49:35.143Z,31.90
2018-09-14T14:52:04.506Z,31.07
2018-09-14T14:54:33.874Z,28.92
2018-09-14T14:57:02.422Z,31.53
2018-09-14T14:59:31.654Z,24.30
2018-09-14T15:02:00.186Z,28.17
2018-09-14T15:04:28.760Z,25.73
2018-09-14T15:06:57.321Z,26.40
2018-09-14T15:09:25.952Z,20.03
2018-09-14T15:11:54.686Z,24.63
2018-09-14T15:14:23.434Z,27.47
2018-09-14T15:16:53.299Z,26.27
2018-09-14T15:19:21.936Z,23.57
2018-09-14T15:21:50.508Z,22.80
2018-09-14T15:24:19.001Z,23.13
2018-09-14T15:26:47.601Z,24.00
2018-09-14T15:29:16.135Z,24.23
2018-09-14T15:31:44.763Z,22.83
2018-09-14T15:34:14.368Z,23.87
2018-09-14T15:36:43.458Z,21.57
2018-09-14T15:39:12.952Z,25.20
2018-09-14T15:41:41.865Z,22.73
2018-09-14T15:44:10.402Z,22.20
2018-09-14T15:46:38.985Z,22.50
2018-09-14T15:49:08.202Z,22.77
2018-09-14T15:51:36.866Z,19.33
2018-09-14T15:54:05.830Z,21.37
2018-09-14T15:56:34.333Z,17.90
2018-09-14T15:59:03.369Z,16.77
2018-09-14T16:01:32.038Z,19.93
2018-09-14T16:04:01.297Z,18.60
2018-09-14T16:06:30.483Z,16.20
2018-09-14T16:08:59.079Z,19.70
2018-09-14T16:11:27.695Z,15.40
2018-09-14T16:13:56.172Z,20.63
2018-09-14T16:16:31.918Z,22.33
2018-09-14T16:19:00.558Z,19.77
2018-09-14T16:21:29.800Z,17.93
2018-09-14T16:23:58.370Z,18.30
2018-09-14T16:26:27.211Z,17.77
2018-09-14T16:28:55.946Z,17.73
2018-09-14T16:31:24.431Z,11.97
2018-09-14T16:33:52.967Z,14.70
2018-09-14T16:36:21.592Z,17.40
2018-09-14T16:38:50.114Z,17.47
2018-09-14T16:41:19.438Z,16.47
2018-09-14T16:43:48.089Z,15.70
2018-09-14T16:46:16.622Z,11.07
2018-09-14T16:48:45.817Z,15.70
2018-09-14T16:51:15.397Z,17.40
2018-09-14T16:53:43.922Z,15.00
2018-09-14T16:56:12.466Z,15.20
2018-09-14T16:58:42.153Z,16.50
2018-09-14T17:01:10.694Z,10.30
2018-09-14T17:03:39.270Z,15.80
2018-09-14T17:06:07.849Z,15.30
2018-09-14T17:08:36.432Z,14.97
2018-09-14T17:11:05.778Z,17.30
2018-09-14T17:13:34.494Z,13.90
2018-09-14T17:16:03.111Z,15.10
2018-09-14T17:18:31.735Z,16.50
2018-09-14T17:21:01.146Z,15.97
2018-09-14T17:23:29.797Z,16.57
2018-09-14T17:25:58.400Z,14.83
2018-09-14T17:28:27.974Z,8.10
2018-09-14T17:30:59.774Z,15.63
2018-09-14T17:33:29.034Z,15.97
2018-09-14T17:35:58.546Z,13.90
2018-09-14T17:38:27.235Z,15.10
2018-09-14T17:40:55.786Z,16.60
2018-09-14T17:43:24.586Z,13.93
2018-09-14T17:45:53.206Z,13.87
2018-09-14T17:48:21.845Z,10.63
2018-09-14T17:50:50.865Z,8.10
2018-09-14T17:53:19.559Z,6.87
2018-09-14T17:55:48.305Z,7.60
2018-09-14T17:58:17.152Z,7.23
2018-09-14T18:00:46.135Z,7.43
2018-09-14T18:03:14.812Z,9.20
2018-09-14T18:05:43.563Z,9.70
2018-09-14T18:08:12.200Z,10.77
2018-09-14T18:10:41.082Z,8.50
2018-09-14T18:13:09.725Z,9.63
2018-09-14T18:15:38.511Z,14.90
2018-09-14T18:18:07.161Z,10.37
2018-09-14T18:20:36.813Z,12.07
2018-09-14T18:23:06.061Z,14.70
2018-09-14T18:25:39.303Z,9.50
2018-09-14T18:28:08.582Z,11.30
2018-09-14T18:30:37.777Z,9.73
2018-09-14T18:33:06.696Z,7.97
2018-09-14T18:35:35.614Z,8.77
2018-09-14T18:38:04.686Z,7.43
2018-09-14T18:40:33.244Z,9.83
2018-09-14T18:43:01.866Z,10.40
2018-09-14T18:45:30.740Z,10.27
2018-09-14T18:47:59.663Z,6.70
2018-09-14T18:50:28.419Z,10.83
2018-09-14T18:52:57.023Z,8.53
2018-09-14T18:55:26.660Z,11.17
2018-09-14T18:57:55.765Z,12.33
2018-09-14T19:00:25.893Z,8.87
2018-09-14T19:02:54.616Z,7.20
2018-09-14T19:05:23.551Z,9.53
2018-09-14T19:07:52.376Z,6.20
2018-09-14T19:10:20.993Z,10.90
2018-09-14T19:12:49.941Z,12.43
2018-09-14T19:15:31.077Z,9.13
2018-09-14T19:18:14.155Z,7.00
2018-09-14T19:20:45.468Z,5.53
2018-09-14T19:23:15.046Z,5.20
2018-09-14T19:25:49.261Z,4.90
2018-09-14T19:28:18.052Z,9.67
2018-09-14T19:30:46.683Z,12.27
2018-09-14T19:33:15.248Z,8.17
2018-09-14T19:35:44.542Z,8.47
2018-09-14T19:38:14.632Z,6.40
2018-09-14T19:40:43.490Z,6.43
2018-09-14T19:43:12.395Z,8.57
2018-09-14T19:45:41.550Z,8.53
2018-09-14T19:48:10.477Z,11.10
2018-09-14T19:50:39.932Z,6.00
2018-09-14T19:53:09.527Z,8.03
2018-09-14T19:55:38.994Z,6.50
2018-09-14T19:58:08.030Z,5.33
2018-09-14T20:00:40.009Z,5.60
2018-09-14T20:03:08.999Z,7.33
2018-09-14T20:05:39.108Z,9.57
2018-09-14T20:08:07.984Z,10.33
2018-09-14T20:10:37.294Z,7.47
2018-09-14T20:13:07.296Z,8.73
2018-09-14T20:15:36.584Z,6.67
2018-09-14T20:18:06.004Z,8.63
2018-09-14T20:20:36.024Z,8.47
2018-09-14T20:23:05.222Z,6.20
2018-09-14T20:25:33.961Z,7.23
2018-09-14T20:28:02.496Z,7.70
2018-09-14T20:30:31.107Z,6.77
2018-09-14T20:32:59.633Z,7.47
2018-09-14T20:35:28.298Z,6.87
2018-09-14T20:37:56.824Z,6.10
2018-09-14T20:40:25.448Z,6.57
2018-09-14T20:42:53.993Z,6.57
2018-09-14T20:45:23.453Z,5.50
2018-09-14T20:47:52.114Z,6.27
2018-09-14T20:50:21.436Z,14.07
2018-09-14T20:52:54.637Z,10.87
2018-09-14T20:55:36.792Z,9.57
2018-09-14T20:58:05.789Z,11.23
2018-09-14T21:00:34.602Z,8.80
2018-09-14T21:03:03.814Z,9.73
2018-09-14T21:05:32.640Z,9.57
2018-09-14T21:08:01.737Z,7.70
2018-09-14T21:10:30.286Z,7.63
2018-09-14T21:12:59.103Z,11.27
2018-09-14T21:15:27.879Z,9.60
2018-09-14T21:17:57.441Z,7.47
2018-09-14T21:20:27.321Z,6.77
2018-09-14T21:22:56.036Z,6.63
2018-09-14T21:25:24.545Z,5.57
2018-09-14T21:27:53.156Z,6.17
2018-09-14T21:30:21.698Z,6.50
2018-09-14T21:32:51.669Z,9.23
2018-09-14T21:35:20.484Z,6.13
2018-09-14T21:37:49.107Z,5.47
2018-09-14T21:40:17.651Z,7.03
2018-09-14T21:42:46.849Z,10.20
2018-09-14T21:45:16.018Z,8.60
2018-09-14T21:47:44.731Z,9.57
2018-09-14T21:50:13.366Z,9.37
2018-09-14T21:52:42.236Z,6.23
2018-09-14T21:55:10.817Z,13.17
2018-09-14T21:57:39.538Z,6.43
2018-09-14T22:00:14.553Z,14.03
2018-09-14T22:02:43.170Z,8.17
2018-09-14T22:05:11.903Z,6.43
2018-09-14T22:07:40.428Z,12.30
2018-09-14T22:10:09.056Z,8.90
2018-09-14T22:12:38.261Z,9.40
2018-09-14T22:15:07.197Z,6.93
2018-09-14T22:17:36.763Z,7.67
2018-09-14T22:20:06.585Z,5.30
2018-09-14T22:22:35.196Z,7.13
2018-09-14T22:25:03.930Z,6.33
2018-09-14T22:27:33.603Z,11.53
2018-09-14T22:30:02.942Z,10.67
2018-09-14T22:32:31.707Z,6.43
2018-09-14T22:35:00.286Z,5.97
2018-09-14T22:37:29.007Z,7.27
2018-09-14T22:39:58.169Z,6.27
2018-09-14T22:42:26.986Z,6.53
2018-09-14T22:44:55.622Z,12.17
2018-09-14T22:47:24.357Z,7.60
2018-09-14T22:49:53.586Z,6.17
2018-09-14T22:52:23.052Z,8.87
2018-09-14T22:54:52.843Z,8.17
2018-09-14T22:57:21.700Z,6.30
2018-09-14T22:59:50.756Z,7.97
2018-09-14T23:02:19.717Z,6.03
2018-09-14T23:04:48.268Z,5.47
2018-09-14T23:07:17.911Z,6.23
2018-09-14T23:09:46.706Z,9.17
2018-09-14T23:12:16.101Z,9.77
2018-09-14T23:14:44.718Z,7.07
2018-09-14T23:17:20.528Z,5.87
2018-09-14T23:19:50.616Z,6.00
2018-09-14T23:22:19.213Z,9.43
2018-09-14T23:24:47.756Z,6.17
2018-09-14T23:27:16.814Z,5.37
2018-09-14T23:29:45.303Z,6.57
2018-09-14T23:32:14.654Z,5.93
2018-09-14T23:34:43.376Z,7.80
2018-09-14T23:37:11.966Z,6.83
2018-09-14T23:39:41.569Z,12.30
2018-09-14T23:42:10.106Z,11.97
2018-09-14T23:44:39.489Z,8.27
2018-09-14T23:47:08.624Z,7.33
2018-09-14T23:49:37.500Z,8.13
2018-09-14T23:52:06.211Z,6.77
2018-09-14T23:54:34.997Z,6.90
2018-09-14T23:57:04.284Z,14.23
2018-09-14T23:59:32.981Z,8.10
